createdAt,value
2018-05-31T00:01:20.233Z,26.10
2018-05-31T00:03:48.378Z,26.00
2018-05-31T00:06:22.211Z,25.90
2018-05-31T00:08:50.913Z,25.90
2018-05-31T00:11:19.045Z,25.90
2018-05-31T00:13:47.947Z,25.80
2018-05-31T00:16:16.163Z,25.80
2018-05-31T00:18:44.391Z,25.80
2018-05-31T00:21:13.313Z,25.70
2018-05-31T00:23:41.424Z,25.70
2018-05-31T00:26:09.566Z,25.70
2018-05-31T00:28:45.891Z,25.60
2018-05-31T00:31:14.862Z,25.50
2018-05-31T00:33:43.010Z,25.50
2018-05-31T00:36:11.145Z,25.50
2018-05-31T00:38:39.274Z,25.50
2018-05-31T00:41:07.388Z,25.40
2018-05-31T00:43:36.545Z,25.40
2018-05-31T00:46:04.681Z,25.40
2018-05-31T00:48:33.564Z,25.30
2018-05-31T00:51:01.705Z,25.30
2018-05-31T00:53:30.856Z,25.20
2018-05-31T00:58:52.375Z,25.10
2018-05-31T01:01:20.501Z,25.10
2018-05-31T01:04:10.055Z,25.10
2018-05-31T01:06:38.449Z,25.10
2018-05-31T01:09:06.984Z,25.00
2018-05-31T01:14:15.977Z,24.90
2018-05-31T01:16:44.106Z,24.90
2018-05-31T01:19:12.244Z,24.90
2018-05-31T01:21:40.374Z,24.80
2018-05-31T01:24:08.502Z,24.80
2018-05-31T01:26:49.236Z,24.80
2018-05-31T01:29:17.381Z,24.70
2018-05-31T01:32:11.801Z,24.70
2018-05-31T01:34:39.968Z,24.70
2018-05-31T01:37:08.092Z,24.60
2018-05-31T01:39:36.221Z,24.60
2018-05-31T01:42:14.602Z,24.60
2018-05-31T01:44:42.735Z,24.60
2018-05-31T01:47:10.864Z,24.60
2018-05-31T01:49:39.771Z,24.50
2018-05-31T01:52:08.664Z,24.50
2018-05-31T01:54:37.577Z,24.50
2018-05-31T01:57:05.704Z,24.40
2018-05-31T01:59:33.818Z,24.40
2018-05-31T02:04:42.817Z,24.40
2018-05-31T02:07:10.943Z,24.30
2018-05-31T02:09:46.275Z,24.30
2018-05-31T02:12:15.176Z,24.20
2018-05-31T02:17:25.110Z,24.10
2018-05-31T02:19:53.245Z,24.10
2018-05-31T02:22:21.381Z,24.10
2018-05-31T02:24:49.506Z,24.10
2018-05-31T02:27:17.628Z,24.10
2018-05-31T02:29:45.771Z,24.00
2018-05-31T02:32:13.887Z,24.00
2018-05-31T02:34:41.985Z,24.00
2018-05-31T02:37:10.871Z,24.00
2018-05-31T02:39:39.888Z,24.00
2018-05-31T02:42:08.031Z,23.90
2018-05-31T02:44:36.153Z,23.90
2018-05-31T02:47:04.280Z,23.90
2018-05-31T02:49:32.435Z,23.90
2018-05-31T02:52:00.553Z,23.90
2018-05-31T02:54:30.037Z,23.80
2018-05-31T02:56:58.187Z,23.70
2018-05-31T02:59:26.311Z,23.70
2018-05-31T03:01:55.203Z,23.70
2018-05-31T03:04:24.094Z,23.70
2018-05-31T03:06:52.225Z,23.70
2018-05-31T03:09:20.361Z,23.60
2018-05-31T03:11:49.865Z,23.60
2018-05-31T03:14:18.764Z,23.60
2018-05-31T03:16:46.927Z,23.50
2018-05-31T03:19:15.029Z,23.60
2018-05-31T03:21:43.182Z,23.50
2018-05-31T03:24:11.299Z,23.50
2018-05-31T03:26:39.411Z,23.50
2018-05-31T03:29:07.558Z,23.50
2018-05-31T03:31:35.668Z,23.40
2018-05-31T03:34:03.788Z,23.40
2018-05-31T03:36:32.672Z,23.40
2018-05-31T03:39:01.563Z,23.40
2018-05-31T03:41:30.458Z,23.40
2018-05-31T03:43:58.570Z,23.40
2018-05-31T03:46:26.730Z,23.30
2018-05-31T03:48:54.855Z,23.30
2018-05-31T03:51:22.961Z,23.30
2018-05-31T03:53:51.080Z,23.30
2018-05-31T03:56:19.233Z,23.30
2018-05-31T03:58:48.096Z,23.30
2018-05-31T04:01:16.254Z,23.30
2018-05-31T04:03:44.355Z,23.30
2018-05-31T04:06:12.494Z,23.30
2018-05-31T04:08:40.621Z,23.30
2018-05-31T04:11:09.506Z,23.30
2018-05-31T04:13:37.606Z,23.20
2018-05-31T04:16:05.736Z,23.20
2018-05-31T04:18:33.886Z,23.20
2018-05-31T04:21:01.985Z,23.20
2018-05-31T04:23:30.116Z,23.20
2018-05-31T04:25:58.551Z,23.20
2018-05-31T04:28:26.687Z,23.20
2018-05-31T04:30:54.821Z,23.30
2018-05-31T04:33:23.697Z,23.40
2018-05-31T04:35:51.821Z,23.30
2018-05-31T04:38:20.889Z,23.40
2018-05-31T04:40:49.029Z,23.50
2018-05-31T04:43:17.160Z,23.50
2018-05-31T04:45:46.045Z,23.70
2018-05-31T04:48:14.170Z,23.70
2018-05-31T04:50:42.286Z,23.80
2018-05-31T04:53:10.413Z,24.00
2018-05-31T04:55:38.529Z,24.10
2018-05-31T04:58:06.678Z,24.20
2018-05-31T05:00:34.830Z,24.30
2018-05-31T05:03:03.729Z,24.60
2018-05-31T05:05:32.593Z,24.60
2018-05-31T05:08:00.725Z,24.70
2018-05-31T05:10:28.828Z,24.80
2018-05-31T05:12:56.945Z,24.90
2018-05-31T05:15:25.076Z,25.10
2018-05-31T05:17:53.185Z,25.20
2018-05-31T05:20:21.327Z,25.30
2018-05-31T05:22:49.472Z,25.50
2018-05-31T05:25:17.589Z,25.60
2018-05-31T05:27:45.719Z,25.80
2018-05-31T05:30:13.924Z,25.90
2018-05-31T05:32:42.045Z,26.00
2018-05-31T05:35:10.172Z,26.20
2018-05-31T05:37:38.283Z,26.30
2018-05-31T05:40:06.423Z,26.50
2018-05-31T05:42:34.549Z,26.60
2018-05-31T05:45:02.685Z,26.80
2018-05-31T05:47:30.842Z,26.90
2018-05-31T05:49:58.962Z,27.10
2018-05-31T05:52:27.089Z,27.20
2018-05-31T05:54:55.260Z,27.40
2018-05-31T05:57:24.148Z,27.70
2018-05-31T05:59:53.078Z,27.90
2018-05-31T06:02:22.284Z,27.90
2018-05-31T06:04:51.397Z,28.10
2018-05-31T06:07:19.660Z,28.30
2018-05-31T06:09:48.336Z,28.50
2018-05-31T06:12:16.439Z,28.70
2018-05-31T06:14:45.225Z,28.90
2018-05-31T06:20:45.305Z,29.30
2018-05-31T06:23:13.438Z,29.60
2018-05-31T06:25:41.573Z,29.80
2018-05-31T06:28:09.709Z,30.00
2018-05-31T06:30:37.864Z,30.20
2018-05-31T06:33:06.663Z,30.40
2018-05-31T06:35:35.191Z,30.50
2018-05-31T06:38:04.576Z,30.90
2018-05-31T06:40:33.512Z,31.10
2018-05-31T06:43:01.648Z,31.10
2018-05-31T06:45:29.793Z,31.30
2018-05-31T06:47:57.921Z,31.40
2018-05-31T06:50:26.796Z,31.80
2018-05-31T06:52:54.907Z,31.70
2018-05-31T06:55:23.052Z,32.00
2018-05-31T06:57:51.171Z,32.10
2018-05-31T07:00:19.307Z,32.30
2018-05-31T07:02:47.437Z,32.50
2018-05-31T07:05:15.574Z,32.60
2018-05-31T07:07:43.702Z,32.80
2018-05-31T07:10:11.839Z,32.90
2018-05-31T07:12:48.297Z,33.10
2018-05-31T07:15:17.495Z,33.40
2018-05-31T07:17:46.383Z,33.50
2018-05-31T07:20:14.547Z,33.50
2018-05-31T07:22:42.674Z,33.70
2018-05-31T07:25:10.804Z,33.80
2018-05-31T07:27:38.933Z,34.00
2018-05-31T07:30:07.073Z,34.10
2018-05-31T07:32:35.974Z,34.40
2018-05-31T07:35:04.088Z,34.40
2018-05-31T07:37:32.196Z,34.50
2018-05-31T07:40:00.297Z,34.60
2018-05-31T07:42:29.200Z,34.90
2018-05-31T07:44:58.073Z,35.00
2018-05-31T07:47:26.204Z,35.00
2018-05-31T07:49:54.304Z,35.10
2018-05-31T07:52:22.452Z,35.30
2018-05-31T07:54:50.585Z,35.30
2018-05-31T07:57:18.727Z,35.50
2018-05-31T07:59:46.857Z,35.60
2018-05-31T08:02:15.725Z,35.80
2018-05-31T08:04:43.855Z,35.80
2018-05-31T08:07:12.006Z,35.90
2018-05-31T08:09:40.896Z,36.10
2018-05-31T08:12:09.787Z,36.20
2018-05-31T08:14:38.675Z,36.20
2018-05-31T08:17:06.819Z,36.20
2018-05-31T08:19:34.954Z,36.30
2018-05-31T08:22:04.374Z,36.40
2018-05-31T08:24:33.233Z,36.50
2018-05-31T08:27:02.124Z,36.60
2018-05-31T08:29:30.266Z,36.60
2018-05-31T08:31:58.378Z,36.70
2018-05-31T08:34:26.499Z,36.80
2018-05-31T08:36:54.625Z,36.80
2018-05-31T08:39:22.740Z,36.90
2018-05-31T08:41:50.859Z,37.00
2018-05-31T08:44:18.976Z,37.00
2018-05-31T08:46:47.876Z,37.30
2018-05-31T08:49:16.774Z,37.40
2018-05-31T08:51:45.656Z,37.50
2018-05-31T08:54:14.536Z,37.70
2018-05-31T08:56:42.682Z,37.60
2018-05-31T08:59:10.791Z,37.80
2018-05-31T09:01:39.693Z,38.00
2018-05-31T09:04:08.572Z,38.10
2018-05-31T09:06:36.703Z,38.10
2018-05-31T09:09:05.525Z,38.10
2018-05-31T09:11:34.241Z,38.20
2018-05-31T09:14:04.055Z,38.30
2018-05-31T09:16:32.160Z,38.20
2018-05-31T09:19:00.282Z,38.30
2018-05-31T09:21:28.389Z,38.30
2018-05-31T09:23:56.503Z,38.30
2018-05-31T09:26:24.622Z,38.20
2018-05-31T09:28:52.786Z,38.20
2018-05-31T09:31:20.887Z,38.20
2018-05-31T09:33:49.006Z,38.30
2018-05-31T09:36:17.145Z,38.30
2018-05-31T09:38:46.069Z,38.40
2018-05-31T09:41:14.214Z,38.40
2018-05-31T09:43:42.309Z,38.40
2018-05-31T09:46:11.213Z,38.50
2018-05-31T09:48:40.084Z,38.50
2018-05-31T09:51:08.897Z,38.50
2018-05-31T09:53:37.766Z,38.60
2018-05-31T09:56:05.875Z,38.60
2018-05-31T09:58:33.981Z,38.60
2018-05-31T10:01:02.105Z,38.60
2018-05-31T10:03:32.355Z,38.70
2018-05-31T10:06:00.455Z,38.70
2018-05-31T10:08:28.576Z,38.70
2018-05-31T10:10:56.701Z,38.80
2018-05-31T10:13:24.828Z,38.80
2018-05-31T10:15:52.942Z,38.90
2018-05-31T10:18:21.069Z,38.90
2018-05-31T10:20:49.192Z,39.00
2018-05-31T10:23:17.308Z,39.00
2018-05-31T10:25:45.415Z,39.00
2018-05-31T10:28:13.546Z,39.10
2018-05-31T10:30:41.666Z,39.10
2018-05-31T10:33:09.773Z,39.10
2018-05-31T10:35:38.644Z,39.20
2018-05-31T10:38:06.765Z,39.20
2018-05-31T10:40:34.896Z,39.20
2018-05-31T10:43:04.509Z,39.20
2018-05-31T10:45:33.457Z,39.20
2018-05-31T10:48:01.599Z,39.30
2018-05-31T10:50:30.466Z,39.40
2018-05-31T10:52:58.575Z,39.30
2018-05-31T10:55:26.711Z,39.40
2018-05-31T10:57:54.840Z,39.50
2018-05-31T11:00:22.964Z,39.50
2018-05-31T11:02:51.072Z,39.50
2018-05-31T11:05:19.987Z,39.60
2018-05-31T11:07:48.098Z,39.60
2018-05-31T11:10:16.217Z,39.70
2018-05-31T11:12:45.109Z,39.80
2018-05-31T11:15:13.267Z,39.80
2018-05-31T11:17:41.403Z,39.90
2018-05-31T11:20:09.491Z,40.00
2018-05-31T11:22:37.618Z,40.10
2018-05-31T11:25:06.508Z,40.30
2018-05-31T11:27:34.656Z,40.20
2018-05-31T11:30:03.693Z,40.40
2018-05-31T11:32:31.799Z,40.40
2018-05-31T11:34:59.921Z,40.50
2018-05-31T11:37:28.040Z,40.60
2018-05-31T11:39:56.150Z,40.70
2018-05-31T11:42:24.280Z,40.70
2018-05-31T11:44:53.183Z,40.90
2018-05-31T11:47:22.056Z,41.00
2018-05-31T11:49:50.204Z,41.00
2018-05-31T11:52:18.311Z,41.00
2018-05-31T11:54:46.432Z,41.10
2018-05-31T11:57:14.564Z,41.20
2018-05-31T11:59:42.675Z,41.20
2018-05-31T12:02:10.802Z,41.30
2018-05-31T12:04:38.916Z,41.30
2018-05-31T12:07:07.798Z,41.40
2018-05-31T12:09:36.674Z,41.50
2018-05-31T12:12:04.785Z,41.50
2018-05-31T12:14:32.929Z,41.50
2018-05-31T12:17:01.058Z,41.60
2018-05-31T12:19:29.182Z,41.70
2018-05-31T12:21:57.357Z,41.70
2018-05-31T12:24:25.481Z,41.80
2018-05-31T12:26:53.587Z,41.90
2018-05-31T12:29:22.464Z,42.10
2018-05-31T12:31:50.573Z,42.00
2018-05-31T12:34:18.693Z,42.10
2018-05-31T12:36:46.801Z,42.20
2018-05-31T12:39:14.965Z,42.20
2018-05-31T12:41:43.095Z,42.20
2018-05-31T12:44:11.197Z,42.20
2018-05-31T12:46:40.087Z,42.30
2018-05-31T12:49:08.219Z,42.20
2018-05-31T12:51:36.373Z,42.20
2018-05-31T12:54:04.487Z,42.30
2018-05-31T12:56:32.601Z,42.20
2018-05-31T12:59:01.492Z,42.20
2018-05-31T13:01:30.413Z,42.30
2018-05-31T13:03:58.467Z,42.30
2018-05-31T13:06:27.348Z,42.40
2018-05-31T13:08:55.466Z,42.30
2018-05-31T13:11:23.572Z,42.40
2018-05-31T13:13:51.696Z,42.40
2018-05-31T13:16:19.820Z,42.40
2018-05-31T13:18:47.925Z,42.40
2018-05-31T13:21:16.195Z,42.40
2018-05-31T13:23:44.333Z,42.40
2018-05-31T13:26:12.441Z,42.30
2018-05-31T13:28:40.560Z,42.20
2018-05-31T13:31:08.665Z,42.20
2018-05-31T13:33:36.802Z,42.20
2018-05-31T13:36:05.662Z,42.10
2018-05-31T13:38:33.774Z,42.00
2018-05-31T13:41:02.659Z,41.80
2018-05-31T13:43:30.773Z,41.80
2018-05-31T13:45:58.886Z,41.80
2018-05-31T13:48:27.101Z,41.60
2018-05-31T13:50:55.195Z,41.50
2018-05-31T13:53:24.361Z,41.40
2018-05-31T13:55:52.465Z,41.30
2018-05-31T13:58:20.609Z,41.10
2018-05-31T14:00:48.725Z,41.00
2018-05-31T14:03:16.839Z,40.80
2018-05-31T14:05:44.941Z,40.70
2018-05-31T14:08:13.050Z,40.50
2018-05-31T14:10:41.166Z,40.40
2018-05-31T14:13:09.276Z,40.20
2018-05-31T14:15:37.397Z,40.00
2018-05-31T14:18:05.551Z,39.90
2018-05-31T14:20:34.428Z,39.60
2018-05-31T14:23:02.549Z,39.60
2018-05-31T14:25:30.672Z,39.30
2018-05-31T14:27:58.801Z,39.20
2018-05-31T14:30:26.907Z,39.00
2018-05-31T14:32:55.016Z,38.80
2018-05-31T14:35:23.875Z,38.50
2018-05-31T14:37:52.001Z,38.40
2018-05-31T14:40:20.881Z,38.10
2018-05-31T14:42:49.783Z,37.90
2018-05-31T14:45:17.900Z,37.80
2018-05-31T14:47:46.004Z,37.70
2018-05-31T14:50:14.142Z,37.50
2018-05-31T14:52:42.282Z,37.30
2018-05-31T14:55:10.373Z,37.10
2018-05-31T14:57:39.315Z,36.80
2018-05-31T15:00:08.219Z,36.60
2018-05-31T15:02:36.320Z,36.50
2018-05-31T15:05:04.468Z,36.40
2018-05-31T15:07:32.609Z,36.20
2018-05-31T15:10:00.736Z,36.00
2018-05-31T15:12:28.860Z,35.80
2018-05-31T15:14:56.981Z,35.70
2018-05-31T15:17:25.092Z,35.50
2018-05-31T15:19:54.001Z,35.10
2018-05-31T15:22:22.817Z,35.10
2018-05-31T15:24:50.925Z,34.90
2018-05-31T15:27:19.144Z,34.80
2018-05-31T15:29:48.060Z,34.40
2018-05-31T15:32:16.950Z,34.40
2018-05-31T15:34:45.113Z,34.20
2018-05-31T15:37:13.559Z,34.10
2018-05-31T15:39:41.792Z,33.90
2018-05-31T15:42:10.238Z,33.80
2018-05-31T15:44:38.347Z,33.60
2018-05-31T15:47:06.960Z,33.40
2018-05-31T15:49:35.212Z,33.20
2018-05-31T15:52:04.770Z,33.00
2018-05-31T15:54:32.884Z,32.90
2018-05-31T15:57:04.754Z,32.70
2018-05-31T15:59:37.054Z,32.70
2018-05-31T16:02:05.299Z,32.50
2018-05-31T16:04:34.140Z,32.40
2018-05-31T16:07:03.123Z,32.30
2018-05-31T16:09:31.837Z,32.10
2018-05-31T16:12:00.602Z,31.90
2018-05-31T16:14:29.574Z,31.80
2018-05-31T16:16:58.478Z,31.50
2018-05-31T16:19:26.601Z,31.50
2018-05-31T16:21:54.715Z,31.40
2018-05-31T16:24:22.862Z,31.30
2018-05-31T16:26:51.696Z,31.20
2018-05-31T16:29:19.825Z,31.00
2018-05-31T16:31:47.985Z,30.90
2018-05-31T16:34:16.108Z,30.80
2018-05-31T16:36:44.226Z,30.70
2018-05-31T16:39:12.452Z,30.60
2018-05-31T16:41:40.655Z,30.40
2018-05-31T16:44:09.552Z,29.90
2018-05-31T16:46:37.777Z,29.90
2018-05-31T16:49:05.869Z,29.60
2018-05-31T16:51:34.326Z,29.30
2018-05-31T16:54:02.479Z,29.00
2018-05-31T16:56:30.618Z,28.70
2018-05-31T16:58:58.824Z,28.50
2018-05-31T17:01:27.698Z,28.00
2018-05-31T17:03:55.900Z,28.00
2018-05-31T17:06:24.840Z,27.80
2018-05-31T17:08:53.095Z,27.60
2018-05-31T17:11:21.245Z,27.40
2018-05-31T17:13:50.161Z,27.10
2018-05-31T17:16:18.271Z,27.00
2018-05-31T17:18:46.403Z,26.90
2018-05-31T17:21:14.754Z,26.80
2018-05-31T17:23:43.195Z,26.70
2018-05-31T17:26:11.347Z,26.70
2018-05-31T17:28:39.494Z,26.70
2018-05-31T17:31:07.614Z,26.70
2018-05-31T17:33:35.739Z,26.70
2018-05-31T17:36:04.775Z,26.70
2018-05-31T17:38:33.645Z,26.70
2018-05-31T17:41:01.962Z,26.70
2018-05-31T17:43:30.852Z,26.70
2018-05-31T17:45:58.984Z,26.70
2018-05-31T17:48:27.080Z,26.70
2018-05-31T17:50:55.985Z,26.70
2018-05-31T17:53:24.093Z,26.70
2018-05-31T17:55:53.155Z,26.70
2018-05-31T17:58:21.320Z,26.70
2018-05-31T18:00:50.253Z,26.60
2018-05-31T18:03:18.439Z,26.60
2018-05-31T18:05:46.671Z,26.60
2018-05-31T18:08:14.833Z,26.60
2018-05-31T18:10:42.942Z,26.60
2018-05-31T18:13:11.137Z,26.50
2018-05-31T18:15:40.039Z,26.50
2018-05-31T18:18:08.166Z,26.50
2018-05-31T18:20:36.293Z,26.40
2018-05-31T18:23:04.442Z,26.40
2018-05-31T18:25:33.337Z,26.40
2018-05-31T18:28:01.458Z,26.30
2018-05-31T18:30:30.193Z,26.30
2018-05-31T18:32:58.339Z,26.40
2018-05-31T18:35:26.455Z,26.30
2018-05-31T18:37:54.684Z,26.20
2018-05-31T18:40:26.267Z,26.20
2018-05-31T18:42:54.379Z,26.20
2018-05-31T18:45:22.548Z,26.10
2018-05-31T18:47:50.652Z,26.10
2018-05-31T18:50:18.738Z,26.10
2018-05-31T18:52:47.681Z,26.00
2018-05-31T18:55:15.778Z,26.00
2018-05-31T18:57:44.682Z,26.00
2018-05-31T19:00:13.581Z,26.00
2018-05-31T19:02:41.689Z,25.90
2018-05-31T19:05:10.674Z,25.90
2018-05-31T19:07:38.824Z,25.90
2018-05-31T19:10:07.715Z,25.80
2018-05-31T19:12:41.425Z,25.80
2018-05-31T19:15:09.558Z,25.80
2018-05-31T19:17:37.669Z,25.80
2018-05-31T19:20:06.579Z,25.70
2018-05-31T19:22:34.722Z,25.70
2018-05-31T19:25:09.513Z,25.70
2018-05-31T19:27:37.646Z,25.60
2018-05-31T19:30:11.438Z,25.60
2018-05-31T19:32:39.531Z,25.60
2018-05-31T19:35:14.028Z,25.50
2018-05-31T19:37:42.146Z,25.50
2018-05-31T19:40:13.021Z,25.50
2018-05-31T19:42:46.859Z,25.50
2018-05-31T19:45:14.981Z,25.40
2018-05-31T19:47:43.228Z,25.30
2018-05-31T19:50:11.376Z,25.30
2018-05-31T19:52:45.270Z,25.30
2018-05-31T19:55:13.384Z,25.30
2018-05-31T19:57:47.227Z,25.20
2018-05-31T20:00:21.057Z,25.20
2018-05-31T20:02:54.879Z,25.10
2018-05-31T20:05:23.017Z,25.10
2018-05-31T20:07:51.152Z,25.10
2018-05-31T20:10:19.283Z,25.00
2018-05-31T20:12:47.538Z,25.00
2018-05-31T20:18:51.959Z,24.80
2018-05-31T20:21:20.084Z,24.80
2018-05-31T20:23:48.199Z,24.80
2018-05-31T20:26:17.325Z,24.70
2018-05-31T20:28:45.431Z,24.70
2018-05-31T20:34:49.195Z,24.70
2018-05-31T20:37:17.314Z,24.60
2018-05-31T20:39:45.433Z,24.60
2018-05-31T20:42:13.560Z,24.60
2018-05-31T20:44:41.681Z,24.50
2018-05-31T20:47:10.564Z,24.40
2018-05-31T20:49:43.247Z,24.40
2018-05-31T20:52:12.469Z,24.40
2018-05-31T20:54:41.337Z,24.40
2018-05-31T20:57:10.235Z,24.30
2018-05-31T20:59:39.120Z,24.30
2018-05-31T21:02:07.630Z,24.30
2018-05-31T21:04:35.817Z,24.30
2018-05-31T21:07:03.980Z,24.30
2018-05-31T21:09:32.066Z,24.20
2018-05-31T21:12:00.207Z,24.20
2018-05-31T21:14:28.342Z,24.10
2018-05-31T21:16:56.493Z,24.10
2018-05-31T21:19:24.613Z,24.10
2018-05-31T21:21:52.714Z,24.10
2018-05-31T21:24:20.822Z,24.10
2018-05-31T21:26:49.715Z,24.00
2018-05-31T21:29:18.654Z,24.00
2018-05-31T21:31:47.503Z,23.90
2018-05-31T21:34:15.680Z,23.90
2018-05-31T21:36:44.654Z,23.90
2018-05-31T21:39:12.796Z,23.90
2018-05-31T21:41:40.902Z,23.90
2018-05-31T21:44:09.007Z,23.80
2018-05-31T21:46:37.881Z,23.80
2018-05-31T21:49:06.005Z,23.70
2018-05-31T21:51:34.122Z,23.80
2018-05-31T21:54:02.249Z,23.70
2018-05-31T21:56:30.428Z,23.70
2018-05-31T21:58:58.540Z,23.70
2018-05-31T22:01:26.667Z,23.60
2018-05-31T22:03:55.543Z,23.60
2018-05-31T22:06:23.652Z,23.60
2018-05-31T22:08:51.775Z,23.60
2018-05-31T22:11:19.932Z,23.50
2018-05-31T22:13:48.012Z,23.50
2018-05-31T22:16:16.120Z,23.50
2018-05-31T22:18:44.244Z,23.50
2018-05-31T22:21:12.354Z,23.40
2018-05-31T22:23:40.453Z,23.40
2018-05-31T22:26:08.588Z,23.40
2018-05-31T22:28:37.558Z,23.40
2018-05-31T22:31:06.048Z,23.40
2018-05-31T22:33:34.155Z,23.30
2018-05-31T22:36:03.963Z,23.30
2018-05-31T22:38:32.088Z,23.30
2018-05-31T22:41:00.206Z,23.30
2018-05-31T22:43:28.317Z,23.20
2018-05-31T22:45:56.419Z,23.20
2018-05-31T22:48:24.536Z,23.20
2018-05-31T22:50:53.079Z,23.10
2018-05-31T22:53:21.961Z,23.10
2018-05-31T22:55:50.082Z,23.10
2018-05-31T22:58:18.191Z,23.00
2018-05-31T23:00:46.311Z,23.00
2018-05-31T23:03:15.180Z,23.00
2018-05-31T23:05:43.280Z,23.00
2018-05-31T23:08:12.173Z,22.90
2018-05-31T23:10:41.028Z,22.90
2018-05-31T23:13:09.155Z,22.90
2018-05-31T23:15:38.057Z,22.90
2018-05-31T23:18:06.928Z,22.80
2018-05-31T23:20:35.041Z,22.80
2018-05-31T23:23:04.595Z,22.80
2018-05-31T23:25:32.687Z,22.80
2018-05-31T23:28:00.811Z,22.80
2018-05-31T23:30:28.926Z,22.70
2018-05-31T23:32:57.054Z,22.70
2018-05-31T23:35:25.169Z,22.70
2018-05-31T23:37:54.067Z,22.70
2018-05-31T23:40:22.169Z,22.70
2018-05-31T23:42:50.345Z,22.60
2018-05-31T23:45:18.494Z,22.60
2018-05-31T23:47:46.624Z,22.60
2018-05-31T23:50:14.774Z,22.50
2018-05-31T23:52:42.990Z,22.50
2018-05-31T23:55:11.156Z,22.50
2018-05-31T23:57:40.038Z,22.50
